Time;durP1;ratioP1;P1;durP2;ratioP2;P2;SDS_P1;SDS_P2;PMS_P1;PMS_P2;Temp;Humidity;BMP_temperature;BMP_pressure;BME280_temperature;BME280_humidity;BME280_pressure;Samples;Min_cycle;Max_cycle;Signal;HPM_P1;HPM_P2
2022/05/17 00:04:01;;;;;;;8.40;3.35;;;;;;;;;;4295046;80;28509;-76
2022/05/17 00:10:02;;;;;;;7.90;3.42;;;;;;;;;;4273270;80;28519;-76
2022/05/17 00:16:04;;;;;;;6.70;2.98;;;;;;;;;;4299426;80;28541;-76
2022/05/17 00:22:05;;;;;;;7.28;3.22;;;;;;;;;;4322846;80;28544;-76
2022/05/17 00:28:07;;;;;;;9.00;3.15;;;;;;;;;;4343459;80;28690;-76
2022/05/17 00:34:08;;;;;;;7.55;3.15;;;;;;;;;;4318229;80;28509;-76
2022/05/17 00:40:10;;;;;;;10.50;3.33;;;;;;;;;;4297171;80;28514;-77
2022/05/17 00:46:11;;;;;;;5.80;2.85;;;;;;;;;;4330294;80;28483;-77
2022/05/17 00:52:19;;;;;;;7.85;3.12;;;;;;;;;;4313865;80;28546;-76
2022/05/17 00:58:27;;;;;;;7.40;3.17;;;;;;;;;;4309165;80;28647;-77
2022/05/17 01:04:28;;;;;;;5.78;3.45;;;;;;;;;;4304373;80;28519;-77
2022/05/17 01:10:29;;;;;;;6.42;3.42;;;;;;;;;;4313369;80;28541;-77
2022/05/17 01:16:30;;;;;;;6.95;3.37;;;;;;;;;;4309214;80;28553;-77
2022/05/17 01:22:31;;;;;;;6.55;3.05;;;;;;;;;;4320445;80;28556;-77
2022/05/17 01:28:34;;;;;;;6.62;3.37;;;;;;;;;;4309148;80;28547;-77
2022/05/17 01:34:35;;;;;;;6.37;3.00;;;;;;;;;;4272304;80;28549;-77
2022/05/17 01:40:36;;;;;;;7.12;3.25;;;;;;;;;;4313664;80;28570;-77
2022/05/17 01:46:37;;;;;;;7.45;3.40;;;;;;;;;;4294168;80;28573;-78
2022/05/17 01:52:38;;;;;;;8.58;3.47;;;;;;;;;;4272181;80;28556;-78
2022/05/17 01:58:39;;;;;;;8.35;3.77;;;;;;;;;;4318771;80;28520;-79
2022/05/17 02:04:40;;;;;;;8.45;3.60;;;;;;;;;;4316811;80;28471;-78
2022/05/17 02:10:40;;;;;;;9.08;3.35;;;;;;;;;;4299165;80;28498;-78
2022/05/17 02:16:41;;;;;;;7.45;3.45;;;;;;;;;;4278723;80;28526;-78
2022/05/17 02:22:42;;;;;;;7.12;3.62;;;;;;;;;;4298853;80;28471;-78
2022/05/17 02:28:44;;;;;;;8.85;3.50;;;;;;;;;;4255701;80;28606;-79
2022/05/17 02:34:44;;;;;;;6.00;3.35;;;;;;;;;;4244116;80;28569;-80
2022/05/17 02:40:45;;;;;;;6.25;3.42;;;;;;;;;;4309340;80;28524;-78
2022/05/17 02:46:46;;;;;;;8.68;3.40;;;;;;;;;;4266268;80;28550;-78
2022/05/17 02:52:48;;;;;;;6.78;3.15;;;;;;;;;;4279071;80;28530;-77
2022/05/17 02:58:48;;;;;;;6.97;3.37;;;;;;;;;;4285924;80;28497;-77
2022/05/17 03:04:49;;;;;;;8.03;3.60;;;;;;;;;;4271519;80;28522;-77
2022/05/17 03:10:50;;;;;;;8.48;3.70;;;;;;;;;;4263247;80;29094;-77
2022/05/17 03:16:51;;;;;;;8.53;4.03;;;;;;;;;;4247729;80;28503;-78
2022/05/17 03:22:52;;;;;;;7.90;3.83;;;;;;;;;;4256009;80;28549;-78
2022/05/17 03:28:53;;;;;;;6.87;3.40;;;;;;;;;;4315045;80;28510;-78
2022/05/17 03:34:54;;;;;;;6.75;3.58;;;;;;;;;;4317090;80;28522;-78
2022/05/17 03:40:58;;;;;;;7.97;3.72;;;;;;;;;;4321616;80;28585;-77
2022/05/17 03:46:58;;;;;;;8.40;3.40;;;;;;;;;;4318145;80;28567;-77
2022/05/17 03:53:02;;;;;;;6.17;3.60;;;;;;;;;;4298845;80;28541;-78
2022/05/17 03:59:03;;;;;;;6.55;3.30;;;;;;;;;;4313442;80;28572;-78
2022/05/17 04:05:04;;;;;;;7.65;3.62;;;;;;;;;;4291131;80;28512;-79
2022/05/17 04:11:05;;;;;;;6.37;3.65;;;;;;;;;;4313650;80;28564;-77
2022/05/17 04:17:06;;;;;;;7.33;3.85;;;;;;;;;;4319835;80;28525;-77
2022/05/17 04:23:07;;;;;;;9.85;3.90;;;;;;;;;;4323845;80;28595;-76
2022/05/17 04:29:09;;;;;;;7.87;3.92;;;;;;;;;;4342480;80;28582;-75
2022/05/17 04:35:10;;;;;;;7.62;3.42;;;;;;;;;;4310962;80;28529;-80
2022/05/17 04:41:13;;;;;;;6.90;3.77;;;;;;;;;;4333546;80;28517;-79
2022/05/17 04:47:14;;;;;;;7.53;3.72;;;;;;;;;;4334221;80;28583;-80
2022/05/17 04:53:15;;;;;;;8.60;4.12;;;;;;;;;;4338506;80;28584;-82
2022/05/17 04:59:16;;;;;;;8.88;4.28;;;;;;;;;;4336123;80;28581;-79
2022/05/17 05:05:18;;;;;;;11.18;4.08;;;;;;;;;;4318966;80;28552;-77
2022/05/17 05:11:21;;;;;;;7.65;3.52;;;;;;;;;;4334028;80;28547;-80
2022/05/17 05:17:22;;;;;;;9.28;4.10;;;;;;;;;;4345567;80;28530;-83
2022/05/17 05:23:23;;;;;;;7.75;3.55;;;;;;;;;;4346235;79;28506;-82
2022/05/17 05:29:25;;;;;;;10.08;4.20;;;;;;;;;;4334608;80;28520;-82
2022/05/17 05:35:26;;;;;;;7.03;3.95;;;;;;;;;;4344657;80;28551;-83
2022/05/17 05:41:27;;;;;;;9.60;3.67;;;;;;;;;;4315909;81;28472;-82
2022/05/17 05:47:27;;;;;;;7.95;4.20;;;;;;;;;;4339784;79;28616;-81
2022/05/17 05:53:29;;;;;;;8.35;3.60;;;;;;;;;;4329145;80;28562;-76
2022/05/17 05:59:30;;;;;;;6.20;3.15;;;;;;;;;;4313763;80;28533;-76
2022/05/17 06:05:32;;;;;;;7.33;3.52;;;;;;;;;;4315434;80;28525;-76
2022/05/17 06:11:32;;;;;;;8.65;3.80;;;;;;;;;;4322600;80;28518;-76
2022/05/17 06:17:33;;;;;;;14.10;4.15;;;;;;;;;;4335592;80;28506;-76
2022/05/17 06:23:35;;;;;;;7.55;3.85;;;;;;;;;;4301119;80;28996;-76
2022/05/17 06:29:36;;;;;;;8.15;4.55;;;;;;;;;;4324949;80;28534;-76
2022/05/17 06:35:41;;;;;;;7.00;3.85;;;;;;;;;;4338075;80;28471;-77
2022/05/17 06:41:43;;;;;;;11.37;4.47;;;;;;;;;;4335939;80;28575;-77
2022/05/17 06:47:44;;;;;;;11.35;4.25;;;;;;;;;;4340290;80;28564;-79
2022/05/17 06:53:46;;;;;;;7.47;3.65;;;;;;;;;;4337638;80;28901;-76
2022/05/17 06:59:47;;;;;;;10.95;3.85;;;;;;;;;;4332110;80;28486;-76
2022/05/17 07:05:48;;;;;;;9.90;3.80;;;;;;;;;;4324218;80;28565;-76
2022/05/17 07:18:10;;;;;;;7.40;3.58;;;;;;;;;;4322227;80;28563;-78
2022/05/17 07:24:11;;;;;;;9.53;3.95;;;;;;;;;;4332796;80;28514;-76
2022/05/17 07:30:12;;;;;;;9.58;3.85;;;;;;;;;;4359665;80;28537;-79
2022/05/17 07:36:13;;;;;;;12.55;3.95;;;;;;;;;;4301116;80;28529;-81
2022/05/17 07:42:14;;;;;;;10.53;3.80;;;;;;;;;;4286955;80;28553;-77
2022/05/17 07:48:16;;;;;;;8.25;3.08;;;;;;;;;;4268977;80;28517;-76
2022/05/17 07:54:18;;;;;;;7.55;3.70;;;;;;;;;;4370485;79;28584;-75
2022/05/17 08:00:19;;;;;;;7.78;3.37;;;;;;;;;;4387150;79;28515;-76
2022/05/17 08:06:21;;;;;;;7.80;3.33;;;;;;;;;;4351244;80;28539;-77
2022/05/17 08:12:22;;;;;;;11.00;3.92;;;;;;;;;;4413723;79;28527;-75
2022/05/17 08:18:23;;;;;;;6.33;2.95;;;;;;;;;;4431800;79;28541;-77
2022/05/17 08:24:24;;;;;;;5.83;2.77;;;;;;;;;;4412027;78;29450;-76
2022/05/17 08:30:26;;;;;;;5.72;2.65;;;;;;;;;;4331985;80;28525;-76
2022/05/17 08:36:27;;;;;;;6.25;2.85;;;;;;;;;;4266225;82;28519;-76
2022/05/17 08:42:29;;;;;;;8.35;2.35;;;;;;;;;;4283402;82;28527;-76
2022/05/17 08:48:32;;;;;;;5.85;2.50;;;;;;;;;;4328241;80;28617;-76
2022/05/17 08:54:44;;;;;;;2.95;1.90;;;;;;;;;;4200304;82;28554;-76
2022/05/17 09:00:47;;;;;;;4.92;2.20;;;;;;;;;;4215280;82;28535;-76
2022/05/17 09:06:51;;;;;;;4.80;2.10;;;;;;;;;;4281802;82;28545;-76
2022/05/17 09:12:54;;;;;;;7.75;2.25;;;;;;;;;;4261854;82;28581;-76
2022/05/17 09:18:55;;;;;;;3.98;2.00;;;;;;;;;;4288171;82;28505;-76
2022/05/17 09:25:00;;;;;;;5.12;1.90;;;;;;;;;;4263063;80;28530;-76
2022/05/17 09:31:12;;;;;;;5.22;1.90;;;;;;;;;;4329270;80;28528;-76
2022/05/17 09:37:14;;;;;;;5.25;1.77;;;;;;;;;;4356930;80;28494;-76
2022/05/17 09:43:16;;;;;;;5.72;2.02;;;;;;;;;;4350463;80;28535;-76
2022/05/17 09:55:56;;;;;;;5.50;1.80;;;;;;;;;;4352491;80;28556;-75
2022/05/17 10:01:57;;;;;;;6.97;1.92;;;;;;;;;;4370455;80;28470;-76
2022/05/17 10:08:00;;;;;;;3.92;1.60;;;;;;;;;;4350381;80;28520;-76
2022/05/17 10:14:20;;;;;;;9.18;1.60;;;;;;;;;;4369145;80;28544;-77
2022/05/17 10:20:27;;;;;;;7.25;1.67;;;;;;;;;;4279577;82;28517;-77
2022/05/17 10:26:28;;;;;;;;;;;;;;;;;;4305551;80;28524;-78
2022/05/17 10:32:33;;;;;;;3.45;1.55;;;;;;;;;;4317560;80;20325;-78
2022/05/17 10:38:36;;;;;;;7.03;1.67;;;;;;;;;;4266550;81;28553;-77
2022/05/17 10:44:45;;;;;;;5.53;1.85;;;;;;;;;;4282686;81;28540;-77
2022/05/17 10:50:48;;;;;;;7.10;2.30;;;;;;;;;;4288809;81;28538;-77
2022/05/17 10:57:06;;;;;;;4.42;1.50;;;;;;;;;;4289442;81;28500;-78
2022/05/17 11:03:15;;;;;;;4.55;1.55;;;;;;;;;;4287476;81;29185;-78
2022/05/17 11:09:36;;;;;;;3.65;1.70;;;;;;;;;;4308709;80;28537;-77
2022/05/17 11:15:39;;;;;;;4.47;1.57;;;;;;;;;;4310118;81;28516;-78
2022/05/17 11:21:42;;;;;;;5.92;1.72;;;;;;;;;;4290702;81;28502;-78
2022/05/17 11:27:54;;;;;;;4.70;1.60;;;;;;;;;;4313598;80;28651;-77
2022/05/17 11:33:56;;;;;;;3.15;1.50;;;;;;;;;;4357390;80;28576;-77
2022/05/17 11:39:58;;;;;;;4.22;1.05;;;;;;;;;;4363251;80;28514;-77
2022/05/17 11:46:01;;;;;;;5.42;1.55;;;;;;;;;;4366489;80;28514;-77
2022/05/17 11:52:03;;;;;;;4.53;1.72;;;;;;;;;;4353901;80;28463;-77
2022/05/17 11:58:08;;;;;;;3.95;1.25;;;;;;;;;;4370121;80;28584;-77
2022/05/17 12:04:26;;;;;;;3.10;1.10;;;;;;;;;;4319949;80;28498;-77
2022/05/17 12:10:27;;;;;;;2.20;1.00;;;;;;;;;;4299388;80;28474;-77
2022/05/17 12:16:29;;;;;;;5.33;1.35;;;;;;;;;;4327836;80;28539;-77
2022/05/17 12:22:35;;;;;;;4.25;0.90;;;;;;;;;;4319822;80;28482;-77
2022/05/17 12:28:46;;;;;;;1.67;0.82;;;;;;;;;;4318201;80;28506;-78
2022/05/17 12:34:51;;;;;;;3.83;1.20;;;;;;;;;;4252169;80;28532;-77
2022/05/17 12:47:26;;;;;;;4.40;1.12;;;;;;;;;;4283515;80;28468;-78
2022/05/17 12:53:29;;;;;;;4.58;1.37;;;;;;;;;;4238155;80;28484;-78
2022/05/17 12:59:31;;;;;;;2.47;1.00;;;;;;;;;;4282711;80;28523;-78
2022/05/17 13:05:37;;;;;;;4.92;0.90;;;;;;;;;;4356336;79;28533;-78
2022/05/17 13:11:38;;;;;;;3.00;1.27;;;;;;;;;;4350604;79;29080;-78
2022/05/17 13:17:41;;;;;;;2.52;0.98;;;;;;;;;;4336388;79;28528;-78
2022/05/17 13:23:44;;;;;;;3.75;0.90;;;;;;;;;;4330707;79;28532;-79
2022/05/17 13:29:47;;;;;;;2.85;1.40;;;;;;;;;;4305645;80;28526;-77
2022/05/17 13:35:50;;;;;;;3.37;0.93;;;;;;;;;;4350995;79;28548;-78
2022/05/17 13:41:51;;;;;;;2.60;1.07;;;;;;;;;;4375820;79;28522;-78
2022/05/17 13:47:53;;;;;;;3.70;1.10;;;;;;;;;;4375890;79;28601;-79
2022/05/17 13:53:57;;;;;;;2.22;1.10;;;;;;;;;;4293256;80;28547;-78
2022/05/17 14:00:00;;;;;;;4.17;0.95;;;;;;;;;;4231393;81;28536;-78
2022/05/17 14:06:09;;;;;;;4.62;1.00;;;;;;;;;;4307883;80;28531;-78
2022/05/17 14:12:13;;;;;;;4.10;1.05;;;;;;;;;;4283155;80;28546;-79
2022/05/17 14:18:16;;;;;;;3.12;1.05;;;;;;;;;;4294907;80;28531;-79
2022/05/17 14:24:18;;;;;;;2.45;0.90;;;;;;;;;;4345915;79;29595;-78
2022/05/17 14:30:19;;;;;;;3.30;0.90;;;;;;;;;;4392955;79;28524;-80
2022/05/17 14:36:24;;;;;;;5.42;1.30;;;;;;;;;;4394596;79;28497;-78
2022/05/17 14:42:25;;;;;;;6.33;0.87;;;;;;;;;;4397999;79;28504;-79
2022/05/17 14:48:27;;;;;;;4.53;1.00;;;;;;;;;;4323006;81;28498;-81
2022/05/17 14:54:31;;;;;;;2.67;0.85;;;;;;;;;;4333452;80;28586;-81
2022/05/17 15:00:33;;;;;;;2.47;0.93;;;;;;;;;;4373779;79;28551;-81
2022/05/17 15:06:48;;;;;;;3.80;1.02;;;;;;;;;;4400561;79;28505;-80
2022/05/17 15:12:39;;;;;;;2.30;1.20;;;;;;;;;;4382344;79;28524;-83
2022/05/17 15:18:41;;;;;;;3.50;1.35;;;;;;;;;;4370865;79;28544;-83
2022/05/17 15:24:43;;;;;;;2.08;1.05;;;;;;;;;;4394931;79;28462;-81
2022/05/17 15:30:46;;;;;;;4.20;1.10;;;;;;;;;;4398486;79;28574;-80
2022/05/17 15:36:47;;;;;;;1.90;1.12;;;;;;;;;;4414452;79;28484;-76
2022/05/17 15:42:48;;;;;;;3.55;1.15;;;;;;;;;;4393866;79;28504;-75
2022/05/17 15:55:12;;;;;;;3.22;1.30;;;;;;;;;;4257392;81;28513;-76
2022/05/17 16:01:15;;;;;;;4.35;1.20;;;;;;;;;;4298429;81;28492;-78
2022/05/17 16:13:35;;;;;;;3.92;1.75;;;;;;;;;;4347531;79;29063;-77
2022/05/17 16:19:40;;;;;;;4.15;1.50;;;;;;;;;;4329348;79;28478;-76
2022/05/17 16:25:43;;;;;;;5.58;1.52;;;;;;;;;;4333588;79;28535;-77
2022/05/17 16:31:44;;;;;;;4.40;1.25;;;;;;;;;;4333074;80;28543;-77
2022/05/17 16:37:45;;;;;;;3.42;1.20;;;;;;;;;;4358703;79;28575;-76
2022/05/17 16:43:47;;;;;;;2.67;0.98;;;;;;;;;;4331031;79;28503;-77
2022/05/17 16:49:48;;;;;;;3.95;1.10;;;;;;;;;;4334185;79;28494;-78
2022/05/17 16:55:50;;;;;;;2.20;1.22;;;;;;;;;;4327398;79;28570;-78
2022/05/17 17:01:53;;;;;;;4.60;2.02;;;;;;;;;;4340081;79;28580;-77
2022/05/17 17:07:55;;;;;;;4.95;1.27;;;;;;;;;;4321361;79;28529;-77
2022/05/17 17:13:56;;;;;;;4.10;1.00;;;;;;;;;;4328245;79;28530;-77
2022/05/17 17:19:57;;;;;;;6.35;1.35;;;;;;;;;;4339700;80;28602;-77
2022/05/17 17:25:59;;;;;;;4.37;1.35;;;;;;;;;;4349252;80;28532;-77
2022/05/17 17:37:22;;;;;;;3.83;1.22;;;;;;;;;;4343563;79;28529;-78
2022/05/17 17:38:02;;;;;;;5.53;1.65;;;;;;;;;;4336131;80;28545;-77
2022/05/17 17:44:04;;;;;;;4.95;1.42;;;;;;;;;;4332509;80;28552;-78
2022/05/17 17:50:06;;;;;;;2.90;1.10;;;;;;;;;;4319942;80;28518;-80
2022/05/17 17:56:08;;;;;;;3.77;1.50;;;;;;;;;;4327020;80;28493;-80
2022/05/17 18:02:09;;;;;;;3.75;1.35;;;;;;;;;;4321869;80;28559;-82
2022/05/17 18:08:13;;;;;;;3.08;1.37;;;;;;;;;;4310185;80;28483;-82
2022/05/17 18:14:16;;;;;;;6.47;1.65;;;;;;;;;;4333666;80;28510;-81
2022/05/17 18:20:19;;;;;;;4.15;1.72;;;;;;;;;;4339464;80;28474;-81
2022/05/17 18:26:21;;;;;;;5.45;1.60;;;;;;;;;;4344003;80;28533;-83
2022/05/17 18:32:33;;;;;;;3.33;1.50;;;;;;;;;;4399409;79;28514;-83
2022/05/17 18:38:34;;;;;;;3.50;1.60;;;;;;;;;;4400519;80;28541;-83
2022/05/17 18:44:37;;;;;;;3.60;1.70;;;;;;;;;;4394593;81;28478;-81
2022/05/17 18:50:39;;;;;;;3.58;1.82;;;;;;;;;;4378254;79;28533;-78
2022/05/17 18:56:40;;;;;;;3.77;2.10;;;;;;;;;;4345041;80;28496;-76
2022/05/17 19:02:43;;;;;;;3.45;1.92;;;;;;;;;;4345644;80;28539;-76
2022/05/17 19:15:05;;;;;;;2.42;1.47;;;;;;;;;;4413106;79;28567;-75
2022/05/17 19:21:07;;;;;;;5.20;1.65;;;;;;;;;;4412792;79;28491;-77
2022/05/17 19:27:10;;;;;;;3.72;1.60;;;;;;;;;;4406474;79;28538;-76
2022/05/17 19:33:12;;;;;;;4.85;1.60;;;;;;;;;;4314824;80;28534;-76
2022/05/17 19:39:25;;;;;;;2.98;1.55;;;;;;;;;;4398644;79;28564;-75
2022/05/17 19:45:26;;;;;;;7.65;2.00;;;;;;;;;;4348763;80;28540;-74
2022/05/17 19:51:27;;;;;;;3.45;1.40;;;;;;;;;;4356555;80;28547;-76
2022/05/17 19:57:28;;;;;;;4.12;2.00;;;;;;;;;;4311323;80;28549;-75
2022/05/17 20:03:30;;;;;;;4.67;1.90;;;;;;;;;;4312109;80;28567;-74
2022/05/17 20:09:36;;;;;;;6.10;2.55;;;;;;;;;;4296679;80;28522;-77
2022/05/17 20:15:34;;;;;;;6.50;1.87;;;;;;;;;;4359611;80;28506;-75
2022/05/17 20:21:37;;;;;;;4.17;1.50;;;;;;;;;;4338862;80;28577;-76
2022/05/17 20:27:37;;;;;;;3.92;1.45;;;;;;;;;;4345060;80;28543;-77
2022/05/17 20:33:40;;;;;;;2.20;1.10;;;;;;;;;;4362505;80;28534;-75
2022/05/17 20:39:41;;;;;;;4.35;1.50;;;;;;;;;;4367449;80;28589;-79
2022/05/17 20:45:44;;;;;;;3.60;1.20;;;;;;;;;;4367610;80;28550;-78
2022/05/17 20:51:45;;;;;;;3.02;0.98;;;;;;;;;;4366793;80;28561;-79
2022/05/17 20:57:48;;;;;;;2.15;1.02;;;;;;;;;;4365967;80;28530;-80
2022/05/17 21:03:49;;;;;;;3.20;1.35;;;;;;;;;;4345598;80;28569;-79
2022/05/17 21:09:51;;;;;;;2.17;1.37;;;;;;;;;;4327747;80;28553;-79
2022/05/17 21:15:52;;;;;;;2.37;1.22;;;;;;;;;;4343462;80;28497;-79
2022/05/17 21:21:53;;;;;;;3.05;1.10;;;;;;;;;;4308926;80;28514;-79
2022/05/17 21:27:54;;;;;;;4.40;1.37;;;;;;;;;;4341380;80;28542;-79
2022/05/17 21:33:55;;;;;;;1.98;0.98;;;;;;;;;;4378664;80;28599;-79
2022/05/17 21:39:56;;;;;;;4.25;1.00;;;;;;;;;;4365501;80;28882;-80
2022/05/17 21:45:57;;;;;;;5.00;1.20;;;;;;;;;;4364594;80;28506;-79
2022/05/17 21:51:58;;;;;;;5.45;1.12;;;;;;;;;;4327902;80;28563;-79
2022/05/17 21:58:00;;;;;;;4.05;1.70;;;;;;;;;;4291699;80;28542;-79
2022/05/17 22:04:01;;;;;;;4.22;1.30;;;;;;;;;;4327134;80;28455;-79
2022/05/17 22:10:02;;;;;;;3.45;1.27;;;;;;;;;;4335668;80;28479;-79
2022/05/17 22:16:04;;;;;;;2.60;1.20;;;;;;;;;;4368766;80;28572;-79
2022/05/17 22:22:05;;;;;;;3.75;1.20;;;;;;;;;;4369874;80;28494;-78
2022/05/17 22:28:06;;;;;;;1.60;1.02;;;;;;;;;;4375801;80;28526;-79
2022/05/17 22:34:07;;;;;;;3.75;1.12;;;;;;;;;;4370744;80;28609;-79
2022/05/17 22:40:09;;;;;;;3.30;1.17;;;;;;;;;;4348231;80;28490;-77
2022/05/17 22:52:29;;;;;;;4.97;1.20;;;;;;;;;;4324236;80;28528;-79
2022/05/17 22:58:29;;;;;;;3.62;1.20;;;;;;;;;;4315748;80;28484;-78
2022/05/17 23:04:30;;;;;;;3.98;1.25;;;;;;;;;;4293568;81;28502;-78
2022/05/17 23:10:31;;;;;;;5.37;1.35;;;;;;;;;;4314449;80;28504;-79
2022/05/17 23:16:32;;;;;;;3.52;1.25;;;;;;;;;;4299399;80;28490;-79
2022/05/17 23:22:33;;;;;;;4.28;1.00;;;;;;;;;;4320057;80;28518;-79
2022/05/17 23:28:36;;;;;;;3.90;1.35;;;;;;;;;;4334453;80;28530;-79
2022/05/17 23:34:37;;;;;;;3.67;1.12;;;;;;;;;;4344197;80;28563;-79
2022/05/17 23:40:38;;;;;;;5.65;1.42;;;;;;;;;;4306106;80;28497;-80
2022/05/17 23:46:40;;;;;;;4.53;1.30;;;;;;;;;;4316111;80;28509;-79
2022/05/17 23:52:41;;;;;;;2.80;1.10;;;;;;;;;;4311506;80;28519;-79
2022/05/17 23:58:42;;;;;;;2.05;1.05;;;;;;;;;;4303754;80;28520;-79
